Flight Track Log - Related Links

Times and Time Zones

All times are in EDT time to prevent confusion due to time zone crossing. See the EJA396 flight status page for this flight to view local times or setup timezone preferences in your user account.


Time Position Orientation Groundspeed Altitude Reporting Facility
EDT Latitude Longitude Course Direction KTS MPH feet Rate Location/Type
Mon 12:54:18 PM 40.8167 -74.1333 194° South 192 221 1,600  Level New York TRACON
Mon 12:55:24 PM 40.8167 -74.2167 270° West 219 252 3,300 1,700 Climbing New York TRACON
Mon 12:56:18 PM 40.7667 -74.2667 217° Southwest 218 251 5,000 895 Climbing New York TRACON
Mon 12:57:18 PM 40.7167 -74.3000 207° Southwest 248 285 5,000 500 Level New York TRACON
Mon 12:58:18 PM 40.6500 -74.3000 180° South 225 259 6,000 369 Climbing New York TRACON
Mon 12:59:00 PM 40.2941 -74.1520 194° South  Level FlightAware Approximate
Mon 01:00:17 PM 40.5203 -74.2628 168° South 275 316 6,100  Level New York Center
Mon 01:01:18 PM 40.4483 -74.2292 160° South 261 300 6,000  Descending New York Center
Mon 01:02:16 PM 40.3911 -74.1989 158° South 261 300 6,100 1,966 Climbing New York Center
Mon 01:03:17 PM 40.3056 -74.1975 179° South 267 307 9,900 3,437 Climbing New York Center
Mon 01:05:42 PM 40.0747 -74.2386 188° South 351 404 17,900 3,310 Climbing Washington Center
Mon 01:06:40 PM 39.9833 -74.2783 198° South 362 417 21,100 2,067 Climbing Washington Center
Mon 01:07:41 PM 39.8967 -74.3583 215° Southwest 359 413 22,000 446 Climbing Washington Center
Mon 01:08:41 PM 39.8122 -74.4408 217° Southwest 384 442 22,000 252 Level Washington Center
Mon 01:09:40 PM 39.7442 -74.5283 225° Southwest 390 449 22,500 756 Climbing Washington Center
Mon 01:10:40 PM 39.6681 -74.6292 226° Southwest 390 449 23,500 738 Climbing Washington Center
Mon 01:11:42 PM 39.5958 -74.7269 226° Southwest 383 441 24,000 246 Climbing Washington Center
Mon 01:12:42 PM 39.5131 -74.8142 219° Southwest 378 435 24,000  Level Washington Center
Mon 01:13:39 PM 39.4156 -74.8744 206° Southwest 383 441 24,000  Level Washington Center
Mon 01:14:40 PM 39.3178 -74.9317 204° Southwest 388 447 24,000  Level Washington Center
Mon 01:15:41 PM 39.2203 -74.9914 205° Southwest 388 447 24,000  Level Washington Center
Mon 01:16:41 PM 39.1247 -75.0511 206° Southwest 388 447 24,000  Level Washington Center
Mon 01:17:42 PM 39.0311 -75.1053 204° Southwest 383 441 24,000  Level Washington Center
Mon 01:18:40 PM 38.9333 -75.1647 205° Southwest 383 441 24,000  Level Washington Center
Mon 01:19:40 PM 38.8356 -75.2211 204° Southwest 383 441 24,000  Level Washington Center
Mon 01:20:41 PM 38.7378 -75.2803 205° Southwest 383 441 24,000  Level Washington Center
Mon 01:21:42 PM 38.6442 -75.3444 208° Southwest 383 441 24,000  Level Washington Center
Mon 01:22:40 PM 38.5692 -75.4378 224° Southwest 383 441 24,000 -252 Level Washington Center
Mon 01:23:41 PM 38.5089 -75.5492 235° Southwest 376 433 23,500 -1,180 Descending Washington Center
Mon 01:24:42 PM 38.4483 -75.6553 234° Southwest 376 433 21,600 -2,331 Descending Washington Center
Mon 01:25:42 PM 38.3919 -75.7611 236° Southwest 371 427 18,800 -2,797 Descending Washington Center
Mon 01:26:40 PM 38.3272 -75.8722 233° Southwest 371 427 16,100 -2,471 Descending Washington Center
Mon 01:27:41 PM 38.2706 -75.9753 235° Southwest 365 420 13,900 -2,083 Descending Washington Center
Mon 01:28:41 PM 38.2161 -76.0700 234° Southwest 360 414 11,900 -1,866 Descending Washington Center
Mon 01:29:40 PM 38.1614 -76.1647 234° Southwest 350 403 10,200 -950 Descending Washington Center
Mon 01:30:41 PM 38.1086 -76.2647 236° Southwest 340 391 10,000 -98 Descending Washington Center
Mon 01:31:42 PM 38.0539 -76.3592 234° Southwest 340 391 10,000  Level Washington Center
Mon 01:32:40 PM 37.9992 -76.4561 234° Southwest 340 391 10,000  Level Washington Center
Mon 01:33:40 PM 37.9442 -76.5503 233° Southwest 340 391 10,000  Level Washington Center
Mon 01:34:41 PM 37.8911 -76.6469 235° Southwest 340 391 10,000 -454 Level Washington Center
Mon 01:35:39 PM 37.8467 -76.7253 234° Southwest 315 362 9,100 -1,462 Descending Washington Center
Mon 01:36:40 PM 37.8106 -76.8061 241° Southwest 290 334 7,100 -2,213 Descending Washington Center
Mon 01:37:41 PM 37.7969 -76.8978 259° West 267 307 4,600 -2,311 Descending Washington Center
Mon 01:38:42 PM 37.7856 -76.9767 260° West 262 302 2,400 -1,109 Descending Washington Center
Mon 01:39:40 PM 37.7764 -77.0631 262° West 254 292 2,400  Level Washington Center
Mon 01:40:40 PM 37.7669 -77.1522 262° West 254 292 2,400  Level Washington Center
Mon 01:41:41 PM 37.7697 -77.2442 272° West 254 292 2,400  Level Washington Center
Mon 01:43:29 PM 37.7500 -77.4000 261° West 253 291 2,400  Level Potomac TRACON
Mon 01:44:29 PM 37.7000 -77.4667 227° Southwest 247 284 2,400  Level Potomac TRACON
Mon 01:45:29 PM 37.6500 -77.4333 152° Southeast 208 239 2,400 -100 Level Potomac TRACON
Mon 01:46:29 PM 37.6000 -77.3833 142° Southeast 197 227 2,200 -550 Descending Potomac TRACON
Mon 01:47:29 PM 37.5667 -77.3667 158° South 154 177 1,300 -750 Descending Potomac TRACON
Mon 01:48:29 PM 37.5333 -77.3333 142° Southeast 118 136 700 -600 Descending Potomac TRACON

Login

Don't have an account? Register now (free) for customized features, flight alerts, and more!